createdAt,value
2018-02-13T00:02:21.015Z,70.80
2018-02-13T00:04:48.645Z,71.40
2018-02-13T00:07:16.271Z,70.70
2018-02-13T00:09:43.893Z,71.40
2018-02-13T00:12:12.280Z,70.80
2018-02-13T00:14:39.912Z,70.90
2018-02-13T00:17:07.564Z,71.00
2018-02-13T00:19:35.174Z,70.80
2018-02-13T00:22:02.792Z,70.40
2018-02-13T00:24:30.428Z,71.10
2018-02-13T00:26:58.817Z,71.70
2018-02-13T00:29:27.208Z,71.80
2018-02-13T00:31:54.834Z,71.70
2018-02-13T00:34:22.458Z,72.00
2018-02-13T00:36:50.101Z,71.60
2018-02-13T00:39:17.732Z,70.70
2018-02-13T00:41:45.361Z,70.80
2018-02-13T00:44:12.984Z,70.80
2018-02-13T00:46:41.672Z,71.60
2018-02-13T00:49:10.060Z,71.40
2018-02-13T00:51:38.514Z,70.90
2018-02-13T00:54:06.080Z,70.90
2018-02-13T00:56:33.705Z,70.70
2018-02-13T00:59:01.324Z,70.80
2018-02-13T01:01:28.977Z,71.10
2018-02-13T01:03:56.604Z,70.30
2018-02-13T01:06:24.237Z,70.50
2018-02-13T01:08:52.624Z,70.10
2018-02-13T01:11:21.023Z,70.10
2018-02-13T01:13:49.405Z,70.70
2018-02-13T01:16:17.038Z,70.70
2018-02-13T01:18:44.655Z,71.80
2018-02-13T01:21:12.275Z,70.90
2018-02-13T01:23:40.257Z,70.20
2018-02-13T01:26:08.645Z,71.10
2018-02-13T01:28:37.038Z,70.70
2018-02-13T01:31:05.429Z,70.20
2018-02-13T01:33:33.062Z,70.10
2018-02-13T01:36:00.680Z,70.30
2018-02-13T01:38:28.312Z,71.20
2018-02-13T01:40:56.696Z,70.10
2018-02-13T01:43:25.126Z,70.40
2018-02-13T01:45:52.732Z,70.40
2018-02-13T01:48:20.716Z,70.40
2018-02-13T01:50:49.124Z,70.30
2018-02-13T01:53:16.745Z,70.40
2018-02-13T01:55:44.367Z,72.10
2018-02-13T01:58:13.018Z,70.30
2018-02-13T02:00:40.642Z,70.80
2018-02-13T02:03:08.268Z,70.70
2018-02-13T02:05:35.904Z,70.10
2018-02-13T02:08:03.528Z,70.90
2018-02-13T02:10:31.150Z,71.60
2018-02-13T02:12:58.772Z,70.20
2018-02-13T02:15:26.396Z,71.00
2018-02-13T02:17:54.019Z,70.90
2018-02-13T02:20:21.642Z,71.00
2018-02-13T02:22:49.269Z,71.50
2018-02-13T02:25:16.903Z,71.10
2018-02-13T02:27:44.520Z,72.10
2018-02-13T02:30:12.905Z,71.40
2018-02-13T02:35:29.584Z,70.80
2018-02-13T02:37:57.213Z,70.80
2018-02-13T02:40:24.836Z,70.60
2018-02-13T02:43:04.402Z,70.80
2018-02-13T02:45:32.789Z,71.00
2018-02-13T02:48:00.408Z,71.10
2018-02-13T02:50:28.063Z,70.60
2018-02-13T02:52:55.677Z,71.60
2018-02-13T02:55:24.064Z,72.10
2018-02-13T02:57:52.020Z,72.10
2018-02-13T03:00:20.576Z,71.40
2018-02-13T03:02:48.197Z,71.30
2018-02-13T03:05:15.820Z,71.90
2018-02-13T03:07:43.457Z,71.40
2018-02-13T03:10:11.088Z,71.50
2018-02-13T03:12:39.791Z,72.00
2018-02-13T03:15:07.420Z,71.90
2018-02-13T03:17:35.048Z,71.70
2018-02-13T03:20:03.091Z,72.10
2018-02-13T03:22:30.713Z,71.70
2018-02-13T03:24:58.356Z,73.00
2018-02-13T03:27:25.997Z,73.70
2018-02-13T03:29:53.672Z,73.60
2018-02-13T03:32:21.296Z,72.10
2018-02-13T03:34:48.936Z,72.70
2018-02-13T03:37:16.564Z,71.90
2018-02-13T03:39:44.191Z,71.80
2018-02-13T03:42:11.829Z,71.90
2018-02-13T03:44:42.799Z,71.40
2018-02-13T03:47:10.409Z,71.90
2018-02-13T03:49:38.076Z,71.70
2018-02-13T03:52:05.712Z,71.70
2018-02-13T03:54:34.120Z,72.10
2018-02-13T03:57:01.748Z,71.90
2018-02-13T03:59:29.371Z,71.30
2018-02-13T04:01:56.996Z,72.60
2018-02-13T04:04:25.389Z,73.10
2018-02-13T04:06:53.007Z,73.00
2018-02-13T04:09:20.640Z,72.90
2018-02-13T04:11:48.268Z,72.10
2018-02-13T04:14:16.661Z,73.00
2018-02-13T04:16:45.074Z,72.90
2018-02-13T04:19:12.692Z,72.90
2018-02-13T04:21:40.320Z,73.10
2018-02-13T04:24:07.956Z,72.90
2018-02-13T04:26:36.504Z,72.80
2018-02-13T04:29:04.150Z,72.80
2018-02-13T04:31:31.768Z,73.10
2018-02-13T04:33:59.396Z,71.20
2018-02-13T04:36:27.024Z,71.70
2018-02-13T04:38:54.663Z,71.80
2018-02-13T04:41:23.064Z,72.60
2018-02-13T04:43:50.692Z,72.70
2018-02-13T04:46:19.098Z,72.70
2018-02-13T04:48:47.488Z,72.00
2018-02-13T04:51:15.112Z,72.00
2018-02-13T04:53:42.740Z,71.00
2018-02-13T04:56:11.255Z,72.00
2018-02-13T04:58:38.887Z,70.80
2018-02-13T05:01:06.512Z,71.20
2018-02-13T05:03:34.144Z,71.00
2018-02-13T05:06:01.802Z,72.70
2018-02-13T05:08:29.458Z,71.70
2018-02-13T05:10:57.072Z,72.00
2018-02-13T05:13:24.695Z,71.90
2018-02-13T05:15:52.329Z,71.00
2018-02-13T05:18:20.717Z,72.20
2018-02-13T05:20:48.339Z,72.10
2018-02-13T05:23:16.736Z,72.90
2018-02-13T05:25:44.360Z,73.00
2018-02-13T05:28:11.984Z,72.00
2018-02-13T05:30:40.412Z,72.40
2018-02-13T05:33:08.032Z,72.40
2018-02-13T05:35:36.464Z,72.20
2018-02-13T05:38:04.083Z,72.00
2018-02-13T05:40:32.478Z,71.90
2018-02-13T05:43:00.868Z,71.60
2018-02-13T05:45:28.500Z,71.60
2018-02-13T05:47:56.176Z,73.60
2018-02-13T05:50:23.804Z,73.30
2018-02-13T05:52:51.430Z,72.20
2018-02-13T05:55:19.825Z,72.60
2018-02-13T05:57:47.446Z,72.60
2018-02-13T06:00:15.295Z,71.60
2018-02-13T06:02:42.912Z,71.70
2018-02-13T06:05:11.308Z,71.60
2018-02-13T06:07:38.936Z,71.60
2018-02-13T06:10:06.561Z,71.80
2018-02-13T06:12:34.194Z,72.20
2018-02-13T06:15:02.590Z,72.70
2018-02-13T06:17:30.217Z,72.70
2018-02-13T06:19:57.881Z,71.00
2018-02-13T06:22:25.508Z,70.90
2018-02-13T06:24:53.152Z,70.80
2018-02-13T06:27:20.796Z,71.50
2018-02-13T06:29:49.196Z,70.90
2018-02-13T06:32:16.824Z,70.80
2018-02-13T06:34:44.460Z,70.90
2018-02-13T06:37:12.084Z,71.20
2018-02-13T06:39:40.473Z,70.40
2018-02-13T06:42:08.129Z,70.40
2018-02-13T06:44:36.516Z,70.40
2018-02-13T06:47:04.148Z,70.20
2018-02-13T06:49:31.795Z,70.20
2018-02-13T06:51:59.426Z,71.00
2018-02-13T06:54:27.058Z,70.30
2018-02-13T06:56:54.688Z,71.10
2018-02-13T06:59:22.328Z,70.60
2018-02-13T07:01:49.965Z,71.10
2018-02-13T07:04:17.590Z,69.80
2018-02-13T07:06:45.224Z,70.40
2018-02-13T07:09:12.856Z,70.20
2018-02-13T07:11:40.472Z,70.00
2018-02-13T07:14:08.096Z,70.00
2018-02-13T07:16:35.750Z,71.30
2018-02-13T07:19:03.555Z,71.50
2018-02-13T07:21:31.192Z,71.30
2018-02-13T07:23:58.821Z,70.50
2018-02-13T07:26:26.444Z,70.90
2018-02-13T07:28:54.880Z,70.20
2018-02-13T07:31:22.503Z,70.20
2018-02-13T07:33:50.128Z,70.40
2018-02-13T07:36:17.764Z,71.40
2018-02-13T07:38:45.398Z,69.80
2018-02-13T07:41:13.781Z,69.70
2018-02-13T07:43:41.404Z,69.70
2018-02-13T07:46:09.048Z,70.90
2018-02-13T07:48:36.668Z,70.50
2018-02-13T07:51:05.051Z,69.40
2018-02-13T07:53:33.451Z,69.00
2018-02-13T07:56:01.081Z,69.00
2018-02-13T07:58:28.703Z,68.90
2018-02-13T08:00:56.964Z,68.30
2018-02-13T08:03:24.541Z,69.30
2018-02-13T08:05:52.479Z,69.40
2018-02-13T08:08:20.873Z,68.40
2018-02-13T08:10:48.499Z,68.40
2018-02-13T08:13:16.120Z,69.60
2018-02-13T08:15:43.742Z,69.40
2018-02-13T08:18:11.599Z,67.70
2018-02-13T08:20:39.218Z,68.50
2018-02-13T08:23:06.836Z,68.50
2018-02-13T08:25:34.463Z,67.40
2018-02-13T08:28:02.080Z,68.40
2018-02-13T08:30:29.705Z,67.90
2018-02-13T08:32:57.335Z,67.40
2018-02-13T08:35:25.741Z,67.00
2018-02-13T08:37:53.369Z,67.00
2018-02-13T08:40:21.001Z,66.40
2018-02-13T08:42:48.652Z,66.70
2018-02-13T08:45:16.288Z,66.60
2018-02-13T08:47:44.680Z,66.80
2018-02-13T08:50:13.059Z,65.40
2018-02-13T08:52:40.679Z,65.50
2018-02-13T08:55:08.324Z,65.60
2018-02-13T08:57:35.932Z,66.50
2018-02-13T09:00:03.588Z,65.10
2018-02-13T09:02:31.257Z,66.20
2018-02-13T09:04:58.880Z,65.90
2018-02-13T09:07:26.495Z,65.10
2018-02-13T09:09:54.120Z,63.80
2018-02-13T09:12:21.736Z,65.20
2018-02-13T09:14:49.351Z,65.80
2018-02-13T09:17:16.982Z,63.80
2018-02-13T09:19:45.373Z,64.20
2018-02-13T09:22:13.760Z,64.10
2018-02-13T09:24:41.387Z,64.10
2018-02-13T09:27:09.001Z,64.90
2018-02-13T09:29:36.617Z,64.90
2018-02-13T09:32:04.233Z,62.50
2018-02-13T09:34:31.861Z,62.40
2018-02-13T09:36:59.729Z,63.40
2018-02-13T09:39:27.356Z,62.50
2018-02-13T09:41:54.971Z,61.80
2018-02-13T09:44:22.588Z,63.90
2018-02-13T09:46:50.245Z,61.70
2018-02-13T09:49:17.863Z,61.10
2018-02-13T09:51:45.479Z,61.40
2018-02-13T09:54:13.104Z,61.20
2018-02-13T09:56:41.493Z,60.80
2018-02-13T09:59:09.869Z,59.80
2018-02-13T10:01:38.248Z,61.70
2018-02-13T10:04:06.624Z,58.00
2018-02-13T10:06:34.240Z,58.00
2018-02-13T10:09:01.864Z,58.00
2018-02-13T10:11:29.480Z,60.10
2018-02-13T10:13:57.113Z,57.60
2018-02-13T10:16:25.497Z,58.50
2018-02-13T10:18:53.880Z,57.50
2018-02-13T10:21:21.500Z,57.50
2018-02-13T10:23:49.112Z,56.80
2018-02-13T10:26:17.485Z,59.30
2018-02-13T10:28:45.869Z,57.40
2018-02-13T10:31:14.260Z,56.00
2018-02-13T10:33:41.885Z,55.80
2018-02-13T10:36:09.503Z,55.10
2018-02-13T10:38:37.128Z,56.60
2018-02-13T10:41:04.780Z,55.90
2018-02-13T10:43:32.371Z,54.70
2018-02-13T10:46:00.761Z,56.10
2018-02-13T10:48:29.156Z,54.70
2018-02-13T10:50:56.776Z,54.80
2018-02-13T10:53:24.396Z,54.00
2018-02-13T10:55:52.035Z,56.30
2018-02-13T10:58:19.651Z,55.10
2018-02-13T11:00:47.287Z,53.60
2018-02-13T11:03:14.889Z,56.20
2018-02-13T11:05:43.132Z,53.80
2018-02-13T11:08:10.760Z,54.10
2018-02-13T11:10:38.387Z,54.30
2018-02-13T11:13:06.016Z,53.60
2018-02-13T11:15:34.404Z,54.30
2018-02-13T11:18:02.810Z,51.50
2018-02-13T11:20:31.177Z,54.00
2018-02-13T11:22:59.556Z,50.70
2018-02-13T11:25:40.050Z,52.50
2018-02-13T11:28:07.660Z,52.40
2018-02-13T11:30:35.276Z,50.60
2018-02-13T11:33:02.896Z,50.40
2018-02-13T11:35:30.516Z,52.40
2018-02-13T11:37:58.131Z,50.90
2018-02-13T11:40:26.522Z,49.60
2018-02-13T11:42:54.889Z,49.60
2018-02-13T11:45:22.504Z,49.40
2018-02-13T11:47:50.133Z,50.60
2018-02-13T11:50:18.532Z,48.60
2018-02-13T11:52:46.145Z,48.60
2018-02-13T11:55:13.760Z,51.60
2018-02-13T11:57:42.151Z,49.60
2018-02-13T12:00:09.781Z,49.60
2018-02-13T12:02:38.168Z,50.40
2018-02-13T12:05:05.789Z,50.40
2018-02-13T12:07:33.399Z,48.00
2018-02-13T12:10:01.021Z,48.10
2018-02-13T12:12:28.659Z,46.00
2018-02-13T12:14:56.281Z,48.00
2018-02-13T12:17:23.895Z,47.70
2018-02-13T12:19:51.520Z,45.70
2018-02-13T12:22:19.137Z,45.40
2018-02-13T12:24:46.760Z,45.30
2018-02-13T12:27:14.391Z,45.60
2018-02-13T12:29:42.020Z,43.10
2018-02-13T12:32:10.417Z,44.60
2018-02-13T12:34:38.037Z,44.60
2018-02-13T12:37:05.656Z,44.00
2018-02-13T12:39:33.268Z,42.00
2018-02-13T12:42:01.660Z,38.20
2018-02-13T12:44:29.281Z,38.10
2018-02-13T12:46:56.901Z,40.20
2018-02-13T12:49:25.311Z,37.40
2018-02-13T12:51:53.688Z,37.60
2018-02-13T12:54:22.380Z,37.60
2018-02-13T12:56:50.352Z,35.10
2018-02-13T12:59:17.972Z,31.20
2018-02-13T13:01:45.609Z,35.00
2018-02-13T13:04:13.220Z,32.80
2018-02-13T13:06:40.831Z,32.80
2018-02-13T13:09:08.488Z,30.50
2018-02-13T13:11:36.196Z,32.00
2018-02-13T13:14:11.364Z,31.70
2018-02-13T13:16:39.743Z,32.40
2018-02-13T13:19:08.153Z,32.20
2018-02-13T13:21:35.776Z,32.20
2018-02-13T13:24:03.431Z,29.60
2018-02-13T13:26:31.051Z,31.30
2018-02-13T13:28:58.702Z,29.50
2018-02-13T13:31:27.085Z,30.40
2018-02-13T13:33:55.468Z,30.10
2018-02-13T13:36:23.872Z,33.60
2018-02-13T13:38:51.503Z,33.70
2018-02-13T13:41:24.068Z,33.10
2018-02-13T13:43:51.683Z,35.10
2018-02-13T13:46:19.299Z,31.70
2018-02-13T13:48:46.916Z,35.70
2018-02-13T13:51:14.536Z,39.90
2018-02-13T13:53:42.168Z,40.40
2018-02-13T13:56:09.850Z,36.40
2018-02-13T13:58:43.938Z,33.60
2018-02-13T14:04:01.228Z,32.20
2018-02-13T14:06:28.852Z,32.10
2018-02-13T14:08:56.486Z,35.70
2018-02-13T14:11:24.112Z,34.50
2018-02-13T14:13:51.732Z,33.50
2018-02-13T14:16:19.344Z,34.10
2018-02-13T14:18:46.968Z,36.00
2018-02-13T14:21:14.583Z,39.20
2018-02-13T14:23:42.197Z,37.20
2018-02-13T14:26:09.820Z,41.10
2018-02-13T14:28:37.440Z,38.80
2018-02-13T14:31:05.076Z,39.20
2018-02-13T14:33:33.481Z,39.80
2018-02-13T14:36:01.096Z,39.40
2018-02-13T14:38:28.716Z,39.00
2018-02-13T14:40:56.336Z,40.00
2018-02-13T14:43:23.982Z,39.40
2018-02-13T14:45:51.584Z,41.90
2018-02-13T14:48:19.967Z,41.50
2018-02-13T14:50:48.345Z,43.60
2018-02-13T14:53:16.727Z,44.70
2018-02-13T14:55:45.109Z,45.00
2018-02-13T14:58:23.256Z,43.10
2018-02-13T15:00:51.355Z,42.90
2018-02-13T15:03:18.964Z,44.60
2018-02-13T15:05:46.943Z,43.00
2018-02-13T15:08:15.324Z,43.90
2018-02-13T15:10:42.936Z,43.90
2018-02-13T15:13:10.564Z,43.50
2018-02-13T15:15:38.180Z,42.60
2018-02-13T15:18:06.768Z,45.10
2018-02-13T15:20:34.478Z,47.30
2018-02-13T15:23:02.368Z,45.60
2018-02-13T15:25:29.977Z,44.90
2018-02-13T15:27:57.595Z,47.10
2018-02-13T15:30:25.216Z,45.70
2018-02-13T15:32:52.827Z,47.10
2018-02-13T15:35:20.452Z,46.40
2018-02-13T15:37:48.206Z,47.60
2018-02-13T15:40:16.050Z,44.70
2018-02-13T15:42:50.152Z,46.30
2018-02-13T15:45:17.775Z,44.80
2018-02-13T15:47:45.461Z,47.30
2018-02-13T15:50:13.324Z,47.30
2018-02-13T15:52:41.700Z,48.50
2018-02-13T15:55:09.317Z,48.50
2018-02-13T15:57:36.928Z,46.50
2018-02-13T16:00:04.543Z,50.00
2018-02-13T16:02:32.157Z,49.30
2018-02-13T16:05:00.556Z,46.80
2018-02-13T16:07:28.952Z,50.20
2018-02-13T16:09:56.556Z,50.20
2018-02-13T16:12:24.179Z,50.60
2018-02-13T16:14:51.805Z,51.40
2018-02-13T16:17:19.422Z,53.10
2018-02-13T16:19:47.045Z,53.20
2018-02-13T16:22:14.667Z,51.40
2018-02-13T16:24:42.280Z,51.60
2018-02-13T16:27:09.899Z,55.70
2018-02-13T16:29:37.536Z,54.50
2018-02-13T16:32:05.915Z,54.30
2018-02-13T16:34:34.300Z,53.90
2018-02-13T16:37:02.676Z,56.70
2018-02-13T16:39:31.047Z,56.30
2018-02-13T16:42:02.063Z,56.30
2018-02-13T16:44:35.440Z,56.40
2018-02-13T16:47:03.082Z,58.40
2018-02-13T16:49:30.690Z,56.40
2018-02-13T16:51:59.320Z,55.50
2018-02-13T16:54:27.721Z,56.10
2018-02-13T16:56:55.308Z,56.00
2018-02-13T16:59:23.176Z,52.80
2018-02-13T17:01:50.796Z,55.20
2018-02-13T17:04:18.408Z,55.50
2018-02-13T17:06:46.021Z,53.10
2018-02-13T17:09:13.648Z,53.40
2018-02-13T17:11:41.272Z,53.50
2018-02-13T17:14:09.656Z,55.10
2018-02-13T17:16:38.046Z,55.40
2018-02-13T17:19:06.418Z,55.20
2018-02-13T17:21:34.801Z,55.30
2018-02-13T17:24:09.816Z,55.30
2018-02-13T17:26:37.423Z,54.00
2018-02-13T17:29:06.054Z,56.10
2018-02-13T17:31:33.688Z,58.30
2018-02-13T17:34:01.299Z,57.20
2018-02-13T17:36:28.935Z,60.00
2018-02-13T17:38:56.577Z,59.20
2018-02-13T17:41:24.196Z,58.10
2018-02-13T17:43:51.817Z,58.30
2018-02-13T17:46:19.440Z,58.40
2018-02-13T17:48:47.064Z,58.90
2018-02-13T17:51:14.701Z,57.50
2018-02-13T17:53:42.343Z,59.30
2018-02-13T17:56:10.733Z,59.30
2018-02-13T17:58:39.153Z,61.10
2018-02-13T18:01:06.769Z,61.10
2018-02-13T18:03:35.168Z,59.50
2018-02-13T18:06:06.590Z,59.50
2018-02-13T18:08:34.224Z,62.00
2018-02-13T18:11:01.872Z,61.90
2018-02-13T18:13:29.516Z,61.30
2018-02-13T18:15:57.202Z,59.20
2018-02-13T18:18:24.821Z,59.80
2018-02-13T18:20:52.455Z,62.10
2018-02-13T18:23:20.104Z,59.20
2018-02-13T18:25:47.735Z,59.30
2018-02-13T18:28:16.127Z,61.60
2018-02-13T18:30:43.771Z,61.60
2018-02-13T18:33:22.045Z,60.80
2018-02-13T18:35:49.667Z,60.30
2018-02-13T18:38:17.297Z,60.80
2018-02-13T18:40:44.924Z,62.60
2018-02-13T18:43:12.549Z,62.40
2018-02-13T18:45:40.948Z,62.00
2018-02-13T18:48:09.332Z,62.30
2018-02-13T18:50:36.964Z,62.30
2018-02-13T18:55:32.235Z,61.80
2018-02-13T18:57:59.852Z,61.80
2018-02-13T19:00:27.475Z,63.40
2018-02-13T19:02:55.096Z,64.50
2018-02-13T19:05:23.505Z,64.00
2018-02-13T19:07:51.895Z,64.40
2018-02-13T19:10:19.517Z,64.30
2018-02-13T19:12:47.144Z,66.40
2018-02-13T19:15:14.764Z,67.40
2018-02-13T19:17:42.384Z,66.80
2018-02-13T19:20:10.028Z,66.00
2018-02-13T19:22:37.663Z,63.50
2018-02-13T19:25:05.338Z,66.10
2018-02-13T19:27:32.991Z,66.10
2018-02-13T19:30:07.496Z,67.60
2018-02-13T19:32:35.131Z,67.00
2018-02-13T19:35:02.768Z,67.10
2018-02-13T19:37:31.156Z,66.30
2018-02-13T19:39:59.549Z,66.30
2018-02-13T19:42:41.829Z,66.20
2018-02-13T19:45:10.227Z,68.70
2018-02-13T19:47:37.857Z,68.60
2018-02-13T19:50:05.489Z,67.60
2018-02-13T19:52:33.128Z,68.00
2018-02-13T19:55:00.806Z,68.10
2018-02-13T19:57:28.424Z,68.70
2018-02-13T19:59:56.082Z,69.50
2018-02-13T20:02:23.711Z,69.50
2018-02-13T20:04:51.352Z,70.40
2018-02-13T20:07:19.748Z,70.70
2018-02-13T20:09:47.372Z,70.60
2018-02-13T20:12:15.018Z,69.90
2018-02-13T20:14:42.640Z,70.20
2018-02-13T20:17:10.276Z,71.20
2018-02-13T20:19:37.912Z,69.70
2018-02-13T20:22:16.221Z,70.80
2018-02-13T20:24:43.848Z,71.00
2018-02-13T20:27:11.484Z,70.70
2018-02-13T20:29:39.115Z,70.00
2018-02-13T20:32:06.743Z,70.80
2018-02-13T20:34:34.376Z,70.60
2018-02-13T20:37:02.016Z,71.30
2018-02-13T20:39:29.644Z,71.40
2018-02-13T20:41:57.268Z,71.00
2018-02-13T20:44:24.898Z,71.20
2018-02-13T20:46:52.532Z,70.70
2018-02-13T20:49:20.923Z,70.70
2018-02-13T20:51:49.496Z,70.50
2018-02-13T20:54:17.960Z,71.40
2018-02-13T20:56:46.388Z,71.10
2018-02-13T20:59:14.020Z,71.00
2018-02-13T21:01:41.651Z,70.10
2018-02-13T21:04:09.290Z,70.10
2018-02-13T21:06:36.980Z,71.50
2018-02-13T21:09:04.648Z,70.60
2018-02-13T21:11:32.303Z,71.00
2018-02-13T21:14:00.784Z,71.50
2018-02-13T21:16:28.412Z,72.00
2018-02-13T21:18:56.828Z,71.50
2018-02-13T21:21:24.492Z,71.50
2018-02-13T21:23:52.115Z,70.90
2018-02-13T21:26:19.958Z,71.20
2018-02-13T21:28:47.608Z,72.10
2018-02-13T21:31:15.264Z,72.10
2018-02-13T21:33:42.895Z,72.30
2018-02-13T21:36:11.230Z,72.20
2018-02-13T21:38:38.900Z,72.60
2018-02-13T21:41:07.516Z,72.30
2018-02-13T21:43:35.160Z,72.10
2018-02-13T21:46:02.820Z,71.00
2018-02-13T21:48:31.448Z,71.70
2018-02-13T21:50:59.098Z,72.80
2018-02-13T21:53:26.740Z,73.30
2018-02-13T21:55:54.494Z,72.40
2018-02-13T21:58:22.185Z,73.00
2018-02-13T22:00:50.284Z,71.70
2018-02-13T22:03:18.000Z,72.70
2018-02-13T22:05:46.386Z,72.80
2018-02-13T22:08:14.013Z,72.70
2018-02-13T22:10:41.932Z,72.40
2018-02-13T22:13:09.598Z,72.30
2018-02-13T22:15:37.256Z,72.40
2018-02-13T22:18:04.890Z,73.00
2018-02-13T22:20:32.543Z,72.10
2018-02-13T22:23:00.164Z,72.70
2018-02-13T22:25:27.788Z,71.90
2018-02-13T22:27:55.439Z,72.40
2018-02-13T22:30:23.081Z,72.70
2018-02-13T22:32:50.728Z,72.10
2018-02-13T22:35:18.389Z,71.50
2018-02-13T22:37:46.190Z,72.30
2018-02-13T22:40:13.783Z,71.50
2018-02-13T22:42:41.436Z,71.90
2018-02-13T22:45:09.091Z,71.30
2018-02-13T22:47:36.730Z,72.00
2018-02-13T22:50:04.390Z,70.60
2018-02-13T22:52:32.106Z,70.10
2018-02-13T22:54:59.712Z,69.00
2018-02-13T22:57:27.353Z,66.00
2018-02-13T22:59:54.980Z,65.80
2018-02-13T23:02:23.632Z,62.70
2018-02-13T23:04:51.283Z,64.30
2018-02-13T23:07:18.916Z,64.30
2018-02-13T23:09:46.616Z,63.00
2018-02-13T23:12:15.044Z,65.60
2018-02-13T23:14:42.661Z,65.60
2018-02-13T23:17:11.110Z,67.20
2018-02-13T23:19:38.788Z,66.50
2018-02-13T23:22:06.406Z,67.90
2018-02-13T23:24:34.115Z,68.00
2018-02-13T23:27:01.748Z,67.40
2018-02-13T23:29:29.376Z,68.50
2018-02-13T23:31:57.015Z,69.20
2018-02-13T23:34:24.772Z,68.70
2018-02-13T23:36:52.511Z,70.30
2018-02-13T23:39:20.163Z,67.90
2018-02-13T23:41:47.834Z,68.40
2018-02-13T23:44:15.641Z,69.80
2018-02-13T23:46:43.374Z,70.40
2018-02-13T23:49:11.037Z,69.80
2018-02-13T23:51:39.531Z,70.30
2018-02-13T23:54:07.203Z,70.20
2018-02-13T23:56:34.888Z,70.30
2018-02-13T23:59:02.643Z,70.80
